createdAt,value
2019-03-28T00:00:24.025Z,7.70
2019-03-28T00:02:54.124Z,7.70
2019-03-28T00:05:22.325Z,7.90
2019-03-28T00:07:50.553Z,8.00
2019-03-28T00:10:18.705Z,8.10
2019-03-28T00:12:46.925Z,8.20
2019-03-28T00:15:15.180Z,7.90
2019-03-28T00:17:43.392Z,7.60
2019-03-28T00:20:11.615Z,7.60
2019-03-28T00:22:49.204Z,7.70
2019-03-28T00:25:17.655Z,7.50
2019-03-28T00:27:46.874Z,7.40
2019-03-28T00:30:16.298Z,7.20
2019-03-28T00:32:44.521Z,7.30
2019-03-28T00:35:13.719Z,7.40
2019-03-28T00:37:41.978Z,7.50
2019-03-28T00:40:10.260Z,7.40
2019-03-28T00:42:38.437Z,7.00
2019-03-28T00:45:07.778Z,6.90
2019-03-28T00:47:36.254Z,7.10
2019-03-28T00:50:05.244Z,7.20
2019-03-28T00:52:33.586Z,7.30
2019-03-28T00:55:01.889Z,7.40
2019-03-28T00:57:31.142Z,7.50
2019-03-28T00:59:59.427Z,6.80
2019-03-28T01:02:27.636Z,6.30
2019-03-28T01:04:55.961Z,6.20
2019-03-28T01:07:24.196Z,6.20
2019-03-28T01:09:53.389Z,6.10
2019-03-28T01:12:21.694Z,6.40
2019-03-28T01:14:49.922Z,6.60
2019-03-28T01:17:18.168Z,6.80
2019-03-28T01:19:46.453Z,6.80
2019-03-28T01:22:14.614Z,6.50
2019-03-28T01:24:42.768Z,6.10
2019-03-28T01:27:10.962Z,6.20
2019-03-28T01:29:39.179Z,6.40
2019-03-28T01:32:08.385Z,6.40
2019-03-28T01:34:36.631Z,6.50
2019-03-28T01:37:04.788Z,6.70
2019-03-28T01:39:32.989Z,6.80
2019-03-28T01:42:01.155Z,6.80
2019-03-28T01:44:29.414Z,6.90
2019-03-28T01:46:57.521Z,6.60
2019-03-28T01:49:25.731Z,6.60
2019-03-28T01:51:53.900Z,6.50
2019-03-28T01:54:22.229Z,6.10
2019-03-28T01:56:50.520Z,6.00
2019-03-28T01:59:18.703Z,5.80
2019-03-28T02:01:46.920Z,5.80
2019-03-28T02:04:15.101Z,5.60
2019-03-28T02:06:43.228Z,5.50
2019-03-28T02:09:11.414Z,5.40
2019-03-28T02:11:40.277Z,5.30
2019-03-28T02:14:09.810Z,5.30
2019-03-28T02:16:37.999Z,5.00
2019-03-28T02:19:06.293Z,5.10
2019-03-28T02:21:35.395Z,5.20
2019-03-28T02:24:03.604Z,5.30
2019-03-28T02:26:33.041Z,5.50
2019-03-28T02:29:02.001Z,5.40
2019-03-28T02:31:30.386Z,5.20
2019-03-28T02:33:58.593Z,5.10
2019-03-28T02:36:26.888Z,5.30
2019-03-28T02:38:55.087Z,5.40
2019-03-28T02:41:23.341Z,5.60
2019-03-28T02:43:51.586Z,5.70
2019-03-28T02:46:19.839Z,5.80
2019-03-28T02:48:48.034Z,5.90
2019-03-28T02:51:16.313Z,5.80
2019-03-28T02:53:44.653Z,5.70
2019-03-28T02:56:12.891Z,5.60
2019-03-28T02:58:41.146Z,5.50
2019-03-28T03:01:09.470Z,5.70
2019-03-28T03:03:37.715Z,5.80
2019-03-28T03:06:05.940Z,5.80
2019-03-28T03:08:34.198Z,5.80
2019-03-28T03:11:02.387Z,5.90
2019-03-28T03:13:30.658Z,5.80
2019-03-28T03:15:58.919Z,5.60
2019-03-28T03:18:27.114Z,5.30
2019-03-28T03:20:55.413Z,5.40
2019-03-28T03:23:23.642Z,5.50
2019-03-28T03:25:52.847Z,5.30
2019-03-28T03:28:21.115Z,5.20
2019-03-28T03:30:49.487Z,5.30
2019-03-28T03:33:17.782Z,5.00
2019-03-28T03:35:46.013Z,4.90
2019-03-28T03:38:14.467Z,5.00
2019-03-28T03:40:42.770Z,5.20
2019-03-28T03:43:11.093Z,5.40
2019-03-28T03:45:39.523Z,5.50
2019-03-28T03:48:07.729Z,5.60
2019-03-28T03:50:35.943Z,5.70
2019-03-28T03:53:04.133Z,5.60
2019-03-28T03:55:32.385Z,5.10
2019-03-28T03:58:14.254Z,5.10
2019-03-28T04:00:35.649Z,4.80
2019-03-28T04:03:03.983Z,4.70
2019-03-28T04:05:32.146Z,4.80
2019-03-28T04:08:00.730Z,4.80
2019-03-28T04:10:28.909Z,4.60
2019-03-28T04:12:57.109Z,4.60
2019-03-28T04:15:25.310Z,4.50
2019-03-28T04:17:53.562Z,4.70
2019-03-28T04:20:21.923Z,4.80
2019-03-28T04:22:50.172Z,4.90
2019-03-28T04:25:18.348Z,5.00
2019-03-28T04:27:46.813Z,5.20
2019-03-28T04:30:15.257Z,5.10
2019-03-28T04:32:43.429Z,5.10
2019-03-28T04:35:11.645Z,5.20
2019-03-28T04:37:39.821Z,5.20
2019-03-28T04:40:08.720Z,5.10
2019-03-28T04:42:37.339Z,4.70
2019-03-28T04:45:06.066Z,4.50
2019-03-28T04:47:34.348Z,4.40
2019-03-28T04:50:02.659Z,4.30
2019-03-28T04:52:32.035Z,4.30
2019-03-28T04:55:00.446Z,4.30
2019-03-28T04:57:29.561Z,4.50
2019-03-28T04:59:57.823Z,4.70
2019-03-28T05:02:26.129Z,4.80
2019-03-28T05:04:54.345Z,4.90
2019-03-28T05:07:22.529Z,4.70
2019-03-28T05:09:51.752Z,4.50
2019-03-28T05:12:20.065Z,4.40
2019-03-28T05:14:48.333Z,4.60
2019-03-28T05:17:16.566Z,4.70
2019-03-28T05:19:45.749Z,4.70
2019-03-28T05:22:13.978Z,4.70
2019-03-28T05:24:42.211Z,4.70
2019-03-28T05:27:10.398Z,4.50
2019-03-28T05:29:38.828Z,4.70
2019-03-28T05:32:07.169Z,4.70
2019-03-28T05:34:35.528Z,4.80
2019-03-28T05:37:03.747Z,4.50
2019-03-28T05:39:31.942Z,4.50
2019-03-28T05:42:00.583Z,4.60
2019-03-28T05:44:28.902Z,4.40
2019-03-28T05:46:57.081Z,4.00
2019-03-28T05:49:25.289Z,3.90
2019-03-28T05:51:53.509Z,4.00
2019-03-28T05:54:21.774Z,4.20
2019-03-28T05:56:50.024Z,4.30
2019-03-28T05:59:18.233Z,4.40
2019-03-28T06:01:46.504Z,4.30
2019-03-28T06:04:14.729Z,4.10
2019-03-28T06:06:43.006Z,4.10
2019-03-28T06:09:11.326Z,4.20
2019-03-28T06:11:39.523Z,4.20
2019-03-28T06:14:07.729Z,4.20
2019-03-28T06:16:35.952Z,4.10
2019-03-28T06:19:04.238Z,4.00
2019-03-28T06:21:32.447Z,3.90
2019-03-28T06:24:00.834Z,4.20
2019-03-28T06:26:29.032Z,4.50
2019-03-28T06:28:57.205Z,4.70
2019-03-28T06:31:25.406Z,5.10
2019-03-28T06:33:53.614Z,5.50
2019-03-28T06:36:21.875Z,6.00
2019-03-28T06:38:50.308Z,6.40
2019-03-28T06:41:18.648Z,6.80
2019-03-28T06:43:46.951Z,7.20
2019-03-28T06:46:15.381Z,7.50
2019-03-28T06:48:43.636Z,7.80
2019-03-28T06:51:11.837Z,8.00
2019-03-28T06:53:40.116Z,8.20
2019-03-28T06:56:08.312Z,8.40
2019-03-28T06:58:36.537Z,8.40
2019-03-28T07:01:04.821Z,8.50
2019-03-28T07:03:32.988Z,8.60
2019-03-28T07:06:01.711Z,8.60
2019-03-28T07:08:30.005Z,8.50
2019-03-28T07:10:58.335Z,8.40
2019-03-28T07:13:26.643Z,8.40
2019-03-28T07:15:54.829Z,8.40
2019-03-28T07:18:23.074Z,8.60
2019-03-28T07:20:51.322Z,8.70
2019-03-28T07:23:20.121Z,8.50
2019-03-28T07:25:48.325Z,8.60
2019-03-28T07:28:16.517Z,8.80
2019-03-28T07:30:45.380Z,8.90
2019-03-28T07:33:13.731Z,9.10
2019-03-28T07:35:41.990Z,9.30
2019-03-28T07:38:11.188Z,9.50
2019-03-28T07:40:39.390Z,9.60
2019-03-28T07:43:07.674Z,9.60
2019-03-28T07:45:35.973Z,9.60
2019-03-28T07:48:04.365Z,9.80
2019-03-28T07:50:33.514Z,10.00
2019-03-28T07:53:01.866Z,10.20
2019-03-28T07:55:30.145Z,10.10
2019-03-28T07:57:58.587Z,10.20
2019-03-28T08:00:26.747Z,10.20
2019-03-28T08:02:55.035Z,10.30
2019-03-28T08:05:23.229Z,10.50
2019-03-28T08:07:51.403Z,10.60
2019-03-28T08:10:19.623Z,10.60
2019-03-28T08:12:47.820Z,10.60
2019-03-28T08:15:16.578Z,10.60
2019-03-28T08:17:44.769Z,10.80
2019-03-28T08:20:17.389Z,10.90
2019-03-28T08:22:45.670Z,11.10
2019-03-28T08:25:14.423Z,11.10
2019-03-28T08:27:42.710Z,11.30
2019-03-28T08:30:18.650Z,11.50
2019-03-28T08:32:42.186Z,11.50
2019-03-28T08:35:12.415Z,11.60
2019-03-28T08:37:41.025Z,11.80
2019-03-28T08:40:09.989Z,11.90
2019-03-28T08:42:39.362Z,12.10
2019-03-28T08:45:08.044Z,12.10
2019-03-28T08:47:36.347Z,12.20
2019-03-28T08:50:05.705Z,12.40
2019-03-28T08:52:33.882Z,12.70
2019-03-28T08:55:02.053Z,12.70
2019-03-28T08:57:30.541Z,13.00
2019-03-28T08:59:58.819Z,13.10
2019-03-28T09:02:27.122Z,13.20
2019-03-28T09:04:55.293Z,13.20
2019-03-28T09:07:23.531Z,13.20
2019-03-28T09:09:51.797Z,13.50
2019-03-28T09:12:19.982Z,13.80
2019-03-28T09:14:48.171Z,13.90
2019-03-28T09:17:16.429Z,13.90
2019-03-28T09:19:44.873Z,13.80
2019-03-28T09:22:13.045Z,14.00
2019-03-28T09:24:41.304Z,14.10
2019-03-28T09:27:09.601Z,14.10
2019-03-28T09:29:37.826Z,14.10
2019-03-28T09:32:06.102Z,14.30
2019-03-28T09:34:34.329Z,14.40
2019-03-28T09:37:02.573Z,14.60
2019-03-28T09:39:30.781Z,14.70
2019-03-28T09:41:58.994Z,14.80
2019-03-28T09:44:27.269Z,15.10
2019-03-28T09:46:55.832Z,15.10
2019-03-28T09:49:24.574Z,15.20
2019-03-28T09:51:52.795Z,15.40
2019-03-28T09:54:21.034Z,15.40
2019-03-28T09:56:49.224Z,15.40
2019-03-28T09:59:17.430Z,15.60
2019-03-28T10:01:45.740Z,15.70
2019-03-28T10:04:13.966Z,15.70
2019-03-28T10:06:42.151Z,15.70
2019-03-28T10:09:10.422Z,15.70
2019-03-28T10:11:38.603Z,15.90
2019-03-28T10:14:07.793Z,16.00
2019-03-28T10:16:36.136Z,16.20
2019-03-28T10:19:04.315Z,16.20
2019-03-28T10:21:32.715Z,16.40
2019-03-28T10:24:00.882Z,16.50
2019-03-28T10:26:29.083Z,16.50
2019-03-28T10:28:57.270Z,16.30
2019-03-28T10:31:25.583Z,16.30
2019-03-28T10:33:54.203Z,16.20
2019-03-28T10:36:22.520Z,16.10
2019-03-28T10:38:50.804Z,16.00
2019-03-28T10:41:19.001Z,16.00
2019-03-28T10:43:47.203Z,16.10
2019-03-28T10:46:15.398Z,16.20
2019-03-28T10:48:43.721Z,16.30
2019-03-28T10:51:11.918Z,16.50
2019-03-28T10:53:40.169Z,16.60
2019-03-28T10:56:20.851Z,16.80
2019-03-28T10:58:38.445Z,16.90
2019-03-28T11:01:06.903Z,17.00
2019-03-28T11:03:35.198Z,16.90
2019-03-28T11:06:03.595Z,17.00
2019-03-28T11:08:31.804Z,17.20
2019-03-28T11:11:00.054Z,17.20
2019-03-28T11:13:28.445Z,17.00
2019-03-28T11:15:56.658Z,17.00
2019-03-28T11:18:24.862Z,17.00
2019-03-28T11:20:53.064Z,17.10
2019-03-28T11:23:21.278Z,17.20
2019-03-28T11:25:49.509Z,17.40
2019-03-28T11:28:17.736Z,17.70
2019-03-28T11:30:46.247Z,17.80
2019-03-28T11:33:14.814Z,17.90
2019-03-28T11:35:43.046Z,18.00
2019-03-28T11:38:11.297Z,18.10
2019-03-28T11:40:42.752Z,18.10
2019-03-28T11:43:09.903Z,18.00
2019-03-28T11:45:38.296Z,18.00
2019-03-28T11:48:06.497Z,18.10
2019-03-28T11:50:34.681Z,18.20
2019-03-28T11:53:02.908Z,18.20
2019-03-28T11:55:31.229Z,18.30
2019-03-28T11:57:59.390Z,18.20
2019-03-28T12:00:27.774Z,18.20
2019-03-28T12:02:56.050Z,18.30
2019-03-28T12:05:24.417Z,18.30
2019-03-28T12:07:52.612Z,18.50
2019-03-28T12:10:21.879Z,18.50
2019-03-28T12:12:50.091Z,18.50
2019-03-28T12:15:19.261Z,18.30
2019-03-28T12:17:47.501Z,18.20
2019-03-28T12:20:15.782Z,18.30
2019-03-28T12:22:45.025Z,18.50
2019-03-28T12:25:13.234Z,18.50
2019-03-28T12:27:41.607Z,18.60
2019-03-28T12:30:15.559Z,18.80
2019-03-28T12:32:42.238Z,18.90
2019-03-28T12:35:10.588Z,18.90
2019-03-28T12:37:38.809Z,18.80
2019-03-28T12:40:07.569Z,18.90
2019-03-28T12:42:35.811Z,19.10
2019-03-28T12:45:05.841Z,19.00
2019-03-28T12:47:42.367Z,18.90
2019-03-28T12:50:05.252Z,19.10
2019-03-28T12:52:33.394Z,19.30
2019-03-28T12:55:01.854Z,19.30
2019-03-28T12:57:30.647Z,19.50
2019-03-28T12:59:59.123Z,19.70
2019-03-28T13:02:31.636Z,19.80
2019-03-28T13:04:57.451Z,19.90
2019-03-28T13:07:25.780Z,19.80
2019-03-28T13:09:53.987Z,19.80
2019-03-28T13:12:22.217Z,19.80
2019-03-28T13:14:50.437Z,19.80
2019-03-28T13:17:18.729Z,19.50
2019-03-28T13:19:46.979Z,19.30
2019-03-28T13:22:15.220Z,19.10
2019-03-28T13:24:43.451Z,18.90
2019-03-28T13:27:11.626Z,19.00
2019-03-28T13:29:39.838Z,19.00
2019-03-28T13:32:09.117Z,19.00
2019-03-28T13:34:37.446Z,19.10
2019-03-28T13:37:05.684Z,19.10
2019-03-28T13:39:33.950Z,19.10
2019-03-28T13:42:02.127Z,19.10
2019-03-28T13:44:30.495Z,19.10
2019-03-28T13:46:58.733Z,19.10
2019-03-28T13:49:26.973Z,19.00
2019-03-28T13:51:55.146Z,19.00
2019-03-28T13:54:23.512Z,19.00
2019-03-28T13:56:51.790Z,19.10
2019-03-28T13:59:20.384Z,19.20
2019-03-28T14:01:48.654Z,19.30
2019-03-28T14:04:17.076Z,19.40
2019-03-28T14:06:45.316Z,19.60
2019-03-28T14:09:13.518Z,19.50
2019-03-28T14:11:42.725Z,19.40
2019-03-28T14:14:11.009Z,19.40
2019-03-28T14:16:39.210Z,19.20
2019-03-28T14:19:07.429Z,19.20
2019-03-28T14:21:35.657Z,19.10
2019-03-28T14:24:04.008Z,18.90
2019-03-28T14:26:32.226Z,18.80
2019-03-28T14:29:00.697Z,18.70
2019-03-28T14:31:28.950Z,18.50
2019-03-28T14:33:57.159Z,18.40
2019-03-28T14:36:25.548Z,18.40
2019-03-28T14:38:53.743Z,18.40
2019-03-28T14:41:22.539Z,18.50
2019-03-28T14:43:51.017Z,18.50
2019-03-28T14:46:19.261Z,18.40
2019-03-28T14:48:47.453Z,18.30
2019-03-28T14:51:16.071Z,18.30
2019-03-28T14:53:44.266Z,18.30
2019-03-28T14:56:12.613Z,18.40
2019-03-28T14:58:41.810Z,18.30
2019-03-28T15:01:10.076Z,18.40
2019-03-28T15:03:38.261Z,18.50
2019-03-28T15:06:06.481Z,18.40
2019-03-28T15:08:34.685Z,18.40
2019-03-28T15:11:03.018Z,18.40
2019-03-28T15:13:31.236Z,18.30
2019-03-28T15:15:59.472Z,18.30
2019-03-28T15:18:46.862Z,18.30
2019-03-28T15:21:33.391Z,18.30
2019-03-28T15:24:19.980Z,18.30
2019-03-28T15:27:06.674Z,18.30
2019-03-28T15:29:54.297Z,18.30
2019-03-28T15:32:40.841Z,18.20
2019-03-28T15:35:27.638Z,18.20
2019-03-28T15:38:14.239Z,17.90
2019-03-28T15:41:00.762Z,17.80
2019-03-28T15:43:47.558Z,17.80
2019-03-28T15:46:34.154Z,17.70
2019-03-28T15:49:20.662Z,17.70
2019-03-28T15:52:07.386Z,17.60
2019-03-28T15:54:53.956Z,17.50
2019-03-28T15:57:40.927Z,17.50
2019-03-28T16:00:29.229Z,17.60
2019-03-28T16:03:16.068Z,17.60
2019-03-28T16:06:03.037Z,17.60
2019-03-28T16:08:49.760Z,17.60
2019-03-28T16:11:36.366Z,17.70
2019-03-28T16:14:22.930Z,17.80
2019-03-28T16:17:09.618Z,17.70
2019-03-28T16:19:57.009Z,17.80
2019-03-28T16:22:44.490Z,17.80
2019-03-28T16:25:31.347Z,17.70
2019-03-28T16:28:18.098Z,17.80
2019-03-28T16:31:04.817Z,17.90
2019-03-28T16:33:51.421Z,17.90
2019-03-28T16:36:38.226Z,18.00
2019-03-28T16:39:24.839Z,18.00
2019-03-28T16:42:11.473Z,18.00
2019-03-28T16:44:58.256Z,17.90
2019-03-28T16:47:44.917Z,17.70
2019-03-28T16:50:31.540Z,17.50
2019-03-28T16:53:18.397Z,17.30
2019-03-28T16:56:04.916Z,17.30
2019-03-28T16:58:51.529Z,17.30
2019-03-28T17:01:38.204Z,17.30
2019-03-28T17:04:24.845Z,17.30
2019-03-28T17:07:13.134Z,17.20
2019-03-28T17:09:41.323Z,17.20
2019-03-28T17:12:09.598Z,17.30
2019-03-28T17:14:37.898Z,17.40
2019-03-28T17:17:06.154Z,17.40
2019-03-28T17:19:34.368Z,17.50
2019-03-28T17:22:02.620Z,17.50
2019-03-28T17:24:31.818Z,17.60
2019-03-28T17:27:00.078Z,17.60
2019-03-28T17:29:28.520Z,17.60
2019-03-28T17:31:56.771Z,17.70
2019-03-28T17:34:34.609Z,17.60
2019-03-28T17:36:55.162Z,17.50
2019-03-28T17:39:23.361Z,17.50
2019-03-28T17:41:51.789Z,17.50
2019-03-28T17:44:20.139Z,17.40
2019-03-28T17:46:48.387Z,17.40
2019-03-28T17:49:16.744Z,17.40
2019-03-28T17:51:45.289Z,17.30
2019-03-28T17:54:13.514Z,17.30
2019-03-28T17:56:41.718Z,17.20
2019-03-28T17:59:09.957Z,17.10
2019-03-28T18:01:38.163Z,17.00
2019-03-28T18:04:06.524Z,16.90
2019-03-28T18:06:35.042Z,17.00
2019-03-28T18:09:06.138Z,17.00
2019-03-28T18:11:34.809Z,16.90
2019-03-28T18:14:03.426Z,16.90
2019-03-28T18:16:31.687Z,16.80
2019-03-28T18:18:59.899Z,16.80
2019-03-28T18:21:28.333Z,16.60
2019-03-28T18:23:56.638Z,16.50
2019-03-28T18:26:25.116Z,16.50
2019-03-28T18:28:53.961Z,16.50
2019-03-28T18:31:22.224Z,16.40
2019-03-28T18:33:50.464Z,16.30
2019-03-28T18:36:19.677Z,16.30
2019-03-28T18:38:47.955Z,16.20
2019-03-28T18:41:16.363Z,16.20
2019-03-28T18:43:44.761Z,16.20
2019-03-28T18:46:14.759Z,16.20
2019-03-28T18:48:43.057Z,16.20
2019-03-28T18:51:11.266Z,16.10
2019-03-28T18:53:39.510Z,16.10
2019-03-28T18:56:08.703Z,16.00
2019-03-28T18:58:37.001Z,16.00
2019-03-28T19:01:05.221Z,15.90
2019-03-28T19:03:33.516Z,15.80
2019-03-28T19:06:01.793Z,15.70
2019-03-28T19:08:31.124Z,15.70
2019-03-28T19:10:59.302Z,15.70
2019-03-28T19:13:27.604Z,15.60
2019-03-28T19:15:55.777Z,15.50
2019-03-28T19:18:24.025Z,15.50
2019-03-28T19:20:52.345Z,15.50
2019-03-28T19:23:21.569Z,15.40
2019-03-28T19:25:49.797Z,15.30
2019-03-28T19:28:28.164Z,15.00
2019-03-28T19:30:48.093Z,14.80
2019-03-28T19:33:16.374Z,14.60
2019-03-28T19:35:45.917Z,14.50
2019-03-28T19:38:14.098Z,14.50
2019-03-28T19:40:43.284Z,14.50
2019-03-28T19:43:20.374Z,14.60
2019-03-28T19:45:41.825Z,14.60
2019-03-28T19:48:10.092Z,14.70
2019-03-28T19:50:38.308Z,14.60
2019-03-28T19:53:06.545Z,14.50
2019-03-28T19:55:34.838Z,14.50
2019-03-28T19:58:03.369Z,14.40
2019-03-28T20:00:31.607Z,14.50
2019-03-28T20:03:00.595Z,14.40
2019-03-28T20:05:29.397Z,14.50
2019-03-28T20:07:57.726Z,14.50
2019-03-28T20:10:25.948Z,14.50
2019-03-28T20:12:54.239Z,14.50
2019-03-28T20:15:22.543Z,14.50
2019-03-28T20:17:50.836Z,14.50
2019-03-28T20:20:19.153Z,14.50
2019-03-28T20:22:47.749Z,14.20
2019-03-28T20:25:16.110Z,14.00
2019-03-28T20:27:44.346Z,13.80
2019-03-28T20:30:14.051Z,13.80
2019-03-28T20:32:42.503Z,13.50
2019-03-28T20:35:11.031Z,13.20
2019-03-28T20:37:39.304Z,12.90
2019-03-28T20:40:08.096Z,12.80
2019-03-28T20:42:36.438Z,12.90
2019-03-28T20:45:05.344Z,12.80
2019-03-28T20:47:33.642Z,12.90
2019-03-28T20:50:01.979Z,13.00
2019-03-28T20:52:30.218Z,13.00
2019-03-28T20:54:59.569Z,13.10
2019-03-28T20:57:28.206Z,13.10
2019-03-28T20:59:56.462Z,12.50
2019-03-28T21:02:24.661Z,12.50
2019-03-28T21:04:53.309Z,12.60
2019-03-28T21:07:21.640Z,12.60
2019-03-28T21:09:49.844Z,12.80
2019-03-28T21:12:18.076Z,12.80
2019-03-28T21:14:46.360Z,12.80
2019-03-28T21:17:14.600Z,12.80
2019-03-28T21:19:42.891Z,12.90
2019-03-28T21:22:11.235Z,12.90
2019-03-28T21:24:39.563Z,12.90
2019-03-28T21:27:08.129Z,13.00
2019-03-28T21:29:48.291Z,13.00
2019-03-28T21:32:06.475Z,13.00
2019-03-28T21:34:34.714Z,13.10
2019-03-28T21:37:06.182Z,13.00
2019-03-28T21:39:35.635Z,12.90
2019-03-28T21:42:07.053Z,12.80
2019-03-28T21:44:34.406Z,12.60
2019-03-28T21:47:02.888Z,12.60
2019-03-28T21:49:31.117Z,12.70
2019-03-28T21:51:59.367Z,12.60
2019-03-28T21:54:27.570Z,12.60
2019-03-28T21:56:56.040Z,12.30
2019-03-28T21:59:24.259Z,12.00
2019-03-28T22:01:52.492Z,12.00
2019-03-28T22:04:20.891Z,12.10
2019-03-28T22:06:49.253Z,12.20
2019-03-28T22:09:17.505Z,12.20
2019-03-28T22:11:45.866Z,12.20
2019-03-28T22:14:14.059Z,12.10
2019-03-28T22:16:42.246Z,12.00
2019-03-28T22:19:10.457Z,12.10
2019-03-28T22:21:38.722Z,12.10
2019-03-28T22:24:06.953Z,12.10
2019-03-28T22:26:35.149Z,12.10
2019-03-28T22:29:03.396Z,12.00
2019-03-28T22:31:31.476Z,11.90
2019-03-28T22:33:59.805Z,11.70
2019-03-28T22:36:28.265Z,11.40
2019-03-28T22:38:56.527Z,11.40
2019-03-28T22:41:24.846Z,11.20
2019-03-28T22:43:53.164Z,11.20
2019-03-28T22:46:22.397Z,11.20
2019-03-28T22:48:50.653Z,11.30
2019-03-28T22:51:19.705Z,11.40
2019-03-28T22:53:47.967Z,11.40
2019-03-28T22:56:16.201Z,11.50
2019-03-28T22:58:44.520Z,11.60
2019-03-28T23:01:13.169Z,11.60
2019-03-28T23:03:41.509Z,11.60
2019-03-28T23:06:09.909Z,11.70
2019-03-28T23:08:38.146Z,11.50
2019-03-28T23:11:06.485Z,11.30
2019-03-28T23:13:34.677Z,11.30
2019-03-28T23:16:03.053Z,11.30
2019-03-28T23:18:31.568Z,11.30
2019-03-28T23:20:59.749Z,11.40
2019-03-28T23:23:27.996Z,11.40
2019-03-28T23:25:56.210Z,11.40
2019-03-28T23:28:24.404Z,11.40
2019-03-28T23:30:52.771Z,11.50
2019-03-28T23:33:21.014Z,11.50
2019-03-28T23:35:49.287Z,11.50
2019-03-28T23:38:17.493Z,11.40
2019-03-28T23:40:45.702Z,11.00
2019-03-28T23:43:14.013Z,11.10
2019-03-28T23:45:42.292Z,11.20
2019-03-28T23:48:10.554Z,11.20
2019-03-28T23:50:38.810Z,11.00
2019-03-28T23:53:07.009Z,10.90
2019-03-28T23:55:35.315Z,10.70
2019-03-28T23:58:03.551Z,10.70
